createdAt,value
2019-02-23T00:02:31.511Z,21.53
2019-02-23T00:07:37.503Z,21.80
2019-02-23T00:12:44.522Z,21.47
2019-02-23T00:17:51.364Z,23.07
2019-02-23T00:22:58.288Z,22.53
2019-02-23T00:28:25.509Z,18.93
2019-02-23T00:33:32.155Z,18.80
2019-02-23T00:38:39.075Z,21.00
2019-02-23T00:43:46.116Z,19.17
2019-02-23T00:48:52.989Z,19.90
2019-02-23T00:53:59.947Z,18.83
2019-02-23T00:59:06.822Z,18.67
2019-02-23T01:04:13.727Z,16.83
2019-02-23T01:09:20.638Z,15.97
2019-02-23T01:14:26.630Z,17.13
2019-02-23T01:19:32.632Z,19.77
2019-02-23T01:24:39.567Z,18.77
2019-02-23T01:29:46.442Z,18.17
2019-02-23T01:34:53.363Z,17.53
2019-02-23T01:40:01.298Z,19.10
2019-02-23T01:45:30.019Z,18.20
2019-02-23T01:50:36.956Z,15.27
2019-02-23T01:55:43.842Z,16.93
2019-02-23T02:00:50.780Z,16.07
2019-02-23T02:05:57.746Z,14.67
2019-02-23T02:11:04.992Z,14.63
2019-02-23T02:16:11.554Z,13.90
2019-02-23T02:21:18.132Z,13.67
2019-02-23T02:26:24.136Z,15.50
2019-02-23T02:31:30.825Z,14.37
2019-02-23T02:36:57.990Z,15.63
2019-02-23T02:42:04.578Z,14.77
2019-02-23T02:47:11.395Z,14.13
2019-02-23T02:52:18.340Z,14.80
2019-02-23T02:57:24.334Z,15.47
2019-02-23T03:02:32.580Z,15.63
2019-02-23T03:07:38.680Z,16.83
2019-02-23T03:12:57.135Z,17.07
2019-02-23T03:18:15.786Z,16.83
2019-02-23T03:23:22.601Z,15.47
2019-02-23T03:28:28.541Z,14.27
2019-02-23T03:33:34.573Z,12.30
2019-02-23T03:38:41.542Z,4.73
2019-02-23T03:43:48.123Z,13.40
2019-02-23T03:49:13.396Z,10.73
2019-02-23T03:54:20.343Z,8.30
2019-02-23T03:59:26.295Z,8.43
2019-02-23T04:04:33.313Z,10.93
2019-02-23T04:09:40.081Z,10.73
2019-02-23T04:14:59.181Z,10.03
2019-02-23T04:20:08.283Z,10.80
2019-02-23T04:25:15.023Z,10.10
2019-02-23T04:30:21.733Z,11.10
2019-02-23T04:35:27.870Z,10.40
2019-02-23T04:40:33.899Z,10.63
2019-02-23T04:45:40.116Z,11.30
2019-02-23T04:50:58.866Z,10.57
2019-02-23T04:56:05.906Z,11.23
2019-02-23T05:01:33.247Z,10.50
2019-02-23T05:06:40.297Z,10.83
2019-02-23T05:11:47.187Z,11.10
2019-02-23T05:16:54.076Z,11.00
2019-02-23T05:22:00.905Z,10.30
2019-02-23T05:27:07.973Z,10.27
2019-02-23T05:32:14.924Z,11.60
2019-02-23T05:37:22.023Z,10.57
2019-02-23T05:42:28.012Z,10.13
2019-02-23T05:47:34.013Z,11.27
2019-02-23T05:52:41.065Z,11.27
2019-02-23T05:57:47.082Z,9.13
2019-02-23T06:02:53.072Z,10.40
2019-02-23T06:08:00.111Z,11.33
2019-02-23T06:13:07.431Z,11.13
2019-02-23T06:18:14.575Z,11.07
2019-02-23T06:23:21.692Z,11.47
2019-02-23T06:28:27.927Z,12.80
2019-02-23T06:33:33.888Z,11.43
2019-02-23T06:38:40.877Z,10.57
2019-02-23T06:44:06.144Z,9.57
2019-02-23T06:49:12.838Z,10.33
2019-02-23T06:54:19.728Z,10.67
2019-02-23T06:59:25.864Z,9.73
2019-02-23T07:04:32.090Z,7.87
2019-02-23T07:09:38.141Z,9.10
2019-02-23T07:15:05.776Z,7.47
2019-02-23T07:20:13.108Z,7.33
2019-02-23T07:25:20.060Z,6.37
2019-02-23T07:30:26.058Z,7.40
2019-02-23T07:35:32.661Z,6.90
2019-02-23T07:40:39.567Z,7.00
2019-02-23T07:45:46.472Z,4.97
2019-02-23T07:50:53.359Z,7.47
2019-02-23T07:56:00.042Z,7.10
2019-02-23T08:01:06.763Z,6.30
2019-02-23T08:06:13.297Z,6.77
2019-02-23T08:11:20.610Z,7.60
2019-02-23T08:16:26.605Z,4.70
2019-02-23T08:21:32.611Z,6.33
2019-02-23T08:26:39.524Z,4.83
2019-02-23T08:31:46.724Z,7.10
2019-02-23T08:36:54.030Z,6.73
2019-02-23T08:42:01.149Z,6.57
2019-02-23T08:47:07.719Z,7.43
2019-02-23T08:52:14.973Z,6.60
2019-02-23T08:57:21.852Z,7.07
2019-02-23T09:02:27.895Z,7.07
2019-02-23T09:07:33.909Z,7.23
2019-02-23T09:12:40.084Z,6.97
2019-02-23T09:17:46.950Z,6.00
2019-02-23T09:23:00.144Z,7.10
2019-02-23T09:28:03.690Z,6.80
2019-02-23T09:33:10.627Z,6.80
2019-02-23T09:38:17.495Z,6.13
2019-02-23T09:43:36.271Z,5.33
2019-02-23T09:48:42.823Z,6.53
2019-02-23T09:53:49.401Z,6.80
2019-02-23T09:58:56.338Z,6.07
2019-02-23T10:04:03.003Z,6.27
2019-02-23T10:09:10.374Z,7.90
2019-02-23T10:14:17.628Z,6.53
2019-02-23T10:19:23.589Z,5.67
2019-02-23T10:24:31.681Z,6.57
2019-02-23T10:29:37.632Z,5.67
2019-02-23T10:34:44.580Z,6.23
2019-02-23T10:39:51.792Z,5.73
2019-02-23T10:44:58.557Z,5.60
2019-02-23T10:50:08.933Z,4.97
2019-02-23T10:55:16.552Z,6.20
2019-02-23T11:00:23.227Z,5.20
2019-02-23T11:05:30.717Z,6.20
2019-02-23T11:10:37.813Z,6.33
2019-02-23T11:15:45.002Z,5.40
2019-02-23T11:21:03.972Z,5.53
2019-02-23T11:26:11.733Z,7.30
2019-02-23T11:31:18.430Z,5.60
2019-02-23T11:36:24.538Z,4.93
2019-02-23T11:41:31.401Z,4.87
2019-02-23T11:46:38.934Z,3.87
2019-02-23T11:51:45.910Z,4.07
2019-02-23T11:56:52.947Z,4.53
2019-02-23T12:01:59.832Z,4.17
2019-02-23T12:07:07.264Z,3.87
2019-02-23T12:12:14.150Z,4.00
2019-02-23T12:17:21.084Z,3.50
2019-02-23T12:22:27.093Z,3.90
2019-02-23T12:27:33.554Z,3.40
2019-02-23T12:32:40.752Z,3.37
2019-02-23T12:37:48.872Z,3.23
2019-02-23T12:42:55.852Z,2.93
2019-02-23T12:48:03.240Z,3.40
2019-02-23T12:53:30.996Z,3.67
2019-02-23T12:58:38.283Z,3.13
2019-02-23T13:04:03.654Z,3.33
2019-02-23T13:09:24.183Z,3.43
2019-02-23T13:14:53.909Z,3.17
2019-02-23T13:20:40.819Z,3.80
2019-02-23T13:26:03.485Z,3.87
2019-02-23T13:31:51.878Z,3.80
2019-02-23T13:37:23.544Z,3.93
2019-02-23T13:42:56.904Z,6.93
2019-02-23T13:48:50.801Z,2.90
2019-02-23T13:54:20.640Z,2.70
2019-02-23T13:59:36.996Z,3.30
2019-02-23T14:05:28.234Z,2.87
2019-02-23T14:11:05.720Z,4.30
2019-02-23T14:16:28.430Z,6.13
2019-02-23T14:22:13.858Z,5.77
2019-02-23T14:28:02.756Z,2.73
2019-02-23T14:33:31.132Z,3.43
2019-02-23T14:39:17.875Z,2.83
2019-02-23T14:44:58.881Z,2.60
2019-02-23T14:50:59.303Z,3.30
2019-02-23T14:56:50.882Z,3.40
2019-02-23T15:02:20.078Z,2.63
2019-02-23T15:08:00.661Z,3.00
2019-02-23T15:13:59.549Z,3.10
2019-02-23T15:19:43.734Z,3.03
2019-02-23T15:25:13.449Z,3.20
2019-02-23T15:30:36.316Z,3.20
2019-02-23T15:36:21.562Z,3.23
2019-02-23T15:42:14.590Z,3.20
2019-02-23T15:47:48.825Z,3.37
2019-02-23T15:52:55.550Z,3.30
2019-02-23T15:58:02.405Z,3.40
2019-02-23T16:03:09.051Z,3.27
2019-02-23T16:08:16.220Z,3.40
2019-02-23T16:13:23.046Z,3.10
2019-02-23T16:18:28.983Z,3.57
2019-02-23T16:23:35.738Z,3.40
2019-02-23T16:28:42.752Z,3.20
2019-02-23T16:33:49.806Z,3.50
2019-02-23T16:38:56.766Z,3.40
2019-02-23T16:44:03.462Z,3.23
2019-02-23T16:49:30.848Z,4.27
2019-02-23T16:54:37.702Z,4.30
2019-02-23T17:00:06.125Z,5.63
2019-02-23T17:05:14.833Z,4.87
2019-02-23T17:10:21.839Z,5.07
2019-02-23T17:15:28.015Z,4.60
2019-02-23T17:20:56.023Z,4.63
2019-02-23T17:26:04.462Z,5.70
2019-02-23T17:31:10.976Z,5.67
2019-02-23T17:36:18.045Z,5.70
2019-02-23T17:41:23.976Z,5.37
2019-02-23T17:46:43.283Z,6.07
2019-02-23T17:51:50.401Z,6.17
2019-02-23T17:56:57.237Z,5.77
2019-02-23T18:02:04.162Z,6.17
2019-02-23T18:07:10.636Z,6.70
2019-02-23T18:12:37.496Z,6.53
2019-02-23T18:17:43.401Z,6.37
2019-02-23T18:22:49.409Z,6.73
2019-02-23T18:27:56.570Z,6.67
2019-02-23T18:33:03.409Z,6.77
2019-02-23T18:38:10.322Z,7.27
2019-02-23T18:43:17.142Z,6.77
2019-02-23T18:48:23.101Z,6.83
2019-02-23T18:53:29.056Z,6.80
2019-02-23T18:58:35.545Z,7.37
2019-02-23T19:03:43.631Z,6.77
2019-02-23T19:08:50.176Z,6.47
2019-02-23T19:13:56.670Z,7.47
2019-02-23T19:19:04.238Z,7.13
2019-02-23T19:24:10.839Z,7.93
2019-02-23T19:29:17.289Z,8.93
2019-02-23T19:34:23.404Z,9.50
2019-02-23T19:39:29.331Z,11.27
2019-02-23T19:44:35.332Z,11.33
2019-02-23T19:49:41.362Z,10.50
2019-02-23T19:54:48.108Z,9.93
2019-02-23T20:00:15.884Z,10.17
2019-02-23T20:05:22.759Z,11.73
2019-02-23T20:10:28.786Z,11.60
2019-02-23T20:15:34.728Z,11.40
2019-02-23T20:20:40.625Z,11.63
2019-02-23T20:25:47.512Z,11.97
2019-02-23T20:30:54.401Z,13.00
2019-02-23T20:36:01.059Z,12.43
2019-02-23T20:41:07.944Z,11.83
2019-02-23T20:46:26.884Z,12.33
2019-02-23T20:51:32.963Z,11.97
2019-02-23T20:57:04.035Z,12.87
2019-02-23T21:02:08.022Z,12.57
2019-02-23T21:07:14.871Z,12.97
2019-02-23T21:12:22.065Z,12.90
2019-02-23T21:17:28.053Z,11.93
2019-02-23T21:22:34.008Z,11.17
2019-02-23T21:27:40.615Z,12.93
2019-02-23T21:32:47.128Z,12.63
2019-02-23T21:37:53.600Z,12.83
2019-02-23T21:43:00.203Z,12.07
2019-02-23T21:48:06.624Z,13.13
2019-02-23T21:53:13.077Z,12.50
2019-02-23T21:58:19.643Z,13.63
2019-02-23T22:03:25.571Z,14.17
2019-02-23T22:08:31.538Z,13.80
2019-02-23T22:13:37.478Z,14.50
2019-02-23T22:19:05.039Z,14.47
2019-02-23T22:24:11.617Z,13.17
2019-02-23T22:29:18.044Z,14.03
2019-02-23T22:34:23.991Z,13.27
2019-02-23T22:39:29.900Z,14.23
2019-02-23T22:44:35.871Z,15.70
2019-02-23T22:49:41.682Z,14.83
2019-02-23T22:54:48.585Z,14.87
2019-02-23T22:59:55.472Z,15.10
2019-02-23T23:05:02.235Z,15.70
2019-02-23T23:10:11.665Z,14.87
2019-02-23T23:15:18.821Z,15.57
2019-02-23T23:20:24.679Z,15.23
2019-02-23T23:25:32.596Z,14.90
2019-02-23T23:30:38.960Z,15.23
2019-02-23T23:35:45.232Z,14.57
2019-02-23T23:40:52.023Z,15.17
2019-02-23T23:45:59.052Z,14.90
2019-02-23T23:51:05.807Z,15.57
2019-02-23T23:56:13.504Z,11.53
